메인 페이지
METAR-TAF:

METAR-TAF

공항 :

Wichita Falls Municipal Airport / Sheppard Air Force Base

위치토폴스, 텍사스, 미국

위도: 33-58-43N, 경도: 098-29-34W, 고도: 309m

현재 날씨관측

예보는 18분 전, 10:52시(UTC)에 발표되었습니다.
9kt
온도 26°C
습도 65%
기압 1012 hPa
시정: 16.1km
맑음

METAR: KSPS 131052Z 17009KT 10SM CLR 26/19 A2987 RMK AO2 SLP098 T02560189

시각: 06:10 (11:10 UTC)

예보

예보는 5 시간 50분 전, 05:20시(UTC)에 발표되었습니다.
예보 대상 시간: 13일 06시부터 14일 06시까지 (UTC)
남남동10kt
시정: 10km
고도 25000ft 상공 구름 조금
13일 1500시부터 (UTC)
남남서14kt, 순간 최대 풍속 19kt
시정: 10km
고도 15000ft 상공 구름 보통
14일 0100시부터 (UTC)
12kt
시정: 10km
고도 25000ft 상공 구름 조금

TAF: KSPS 130520Z 1306/1406 15010KT P6SM FEW250 FM131500 21014G19KT P6SM SCT150 FM140100 17012KT P6SM FEW250

4,000개 이상의 공항 관측 자료 및 예보 (METAR 및 TAF 보고).

지도상에서 검색 가능한 기상관측소가 노란 점과 빨간 점으로 표시되어 있습니다.

기상관측소 명을 보려면 표시 위로 마우스를 이동하세요.

날씨 관측과 예보를 보려면 클릭하세요.

지도 변경 : 확대하려면 엑스 표시가 있는 녹색 버튼, 축소하려면 빼기 표시가 있는 녹색 버튼, 다음 페이지의 지도를 보려면 녹색 화살표를 클릭하세요.


METAR-TAF: